Time;durP1;ratioP1;P1;durP2;ratioP2;P2;SDS_P1;SDS_P2;PMS_P1;PMS_P2;Temp;Humidity;BMP_temperature;BMP_pressure;BME280_temperature;BME280_humidity;BME280_pressure;Samples;Min_cycle;Max_cycle;Signal;HPM_P1;HPM_P2
2023/07/03 00:00:33;;;;;;;86.53;53.28;;;17.90;73.70;;;;;;4933287;28;90133;-51
2023/07/03 00:02:59;;;;;;;89.32;54.22;;;17.90;74.40;;;;;;4939295;28;90596;-50
2023/07/03 00:05:24;;;;;;;88.43;53.88;;;17.90;73.60;;;;;;4940187;28;90354;-50
2023/07/03 00:07:50;;;;;;;86.35;53.70;;;17.90;74.60;;;;;;4941957;28;90408;-50
2023/07/03 00:10:16;;;;;;;87.97;54.05;;;17.90;74.00;;;;;;4937166;28;90147;-45
2023/07/03 00:12:43;;;;;;;88.40;53.72;;;17.90;73.90;;;;;;4940056;28;90684;-45
2023/07/03 00:15:09;;;;;;;89.75;53.80;;;17.90;73.80;;;;;;4940978;28;89874;-44
2023/07/03 00:17:37;;;;;;;87.07;53.47;;;17.90;73.60;;;;;;4933417;28;90832;-45
2023/07/03 00:20:04;;;;;;;88.95;53.80;;;17.80;75.00;;;;;;4937314;28;89871;-45
2023/07/03 00:22:30;;;;;;;89.30;53.90;;;17.80;75.00;;;;;;4938312;28;92763;-45
2023/07/03 00:24:55;;;;;;;87.88;54.03;;;17.80;74.00;;;;;;4940007;28;90008;-47
2023/07/03 00:27:21;;;;;;;87.93;53.38;;;17.80;74.00;;;;;;4932152;28;90700;-46
2023/07/03 00:29:46;;;;;;;88.03;53.30;;;17.80;73.60;;;;;;4940260;28;89925;-45
2023/07/03 00:32:12;;;;;;;87.80;53.47;;;17.80;73.90;;;;;;4936254;28;91491;-46
2023/07/03 00:34:38;;;;;;;89.72;53.70;;;17.80;74.70;;;;;;4937567;28;90966;-45
2023/07/03 00:37:04;;;;;;;89.40;53.92;;;17.80;74.20;;;;;;4935445;28;89910;-47
2023/07/03 00:39:29;;;;;;;87.60;53.92;;;17.70;73.80;;;;;;4939125;28;91348;-44
2023/07/03 00:41:55;;;;;;;87.88;53.70;;;17.70;74.30;;;;;;4944248;28;90610;-46
2023/07/03 00:44:21;;;;;;;83.90;53.53;;;17.70;74.20;;;;;;4938695;28;91178;-45
2023/07/03 00:46:50;;;;;;;89.78;53.75;;;17.70;75.10;;;;;;4935370;28;89562;-45
2023/07/03 00:49:17;;;;;;;86.28;53.33;;;17.70;74.00;;;;;;4935394;28;88689;-45
2023/07/03 00:51:46;;;;;;;88.97;53.53;;;17.70;73.80;;;;;;4940045;28;90927;-46
2023/07/03 00:54:11;;;;;;;86.85;53.45;;;17.70;75.00;;;;;;4939982;28;91283;-46
2023/07/03 00:56:37;;;;;;;90.88;54.30;;;17.70;73.90;;;;;;4934320;28;91336;-45
2023/07/03 00:59:04;;;;;;;88.22;53.80;;;17.70;74.30;;;;;;4914563;28;93167;-45
2023/07/03 01:01:34;;;;;;;86.15;53.38;;;17.70;74.20;;;;;;4933486;28;90020;-45
2023/07/03 01:04:08;;;;;;;86.63;53.65;;;17.70;74.30;;;;;;4941500;28;90387;-45
2023/07/03 01:06:40;;;;;;;88.22;53.97;;;17.70;74.10;;;;;;4940757;28;89643;-45
2023/07/03 01:09:10;;;;;;;92.35;53.90;;;17.70;73.80;;;;;;4945294;28;90146;-46
2023/07/03 01:11:36;;;;;;;88.88;53.92;;;17.70;73.90;;;;;;4941259;28;89615;-47
2023/07/03 01:14:03;;;;;;;87.10;53.67;;;17.70;74.00;;;;;;4945722;28;89415;-46
2023/07/03 01:16:32;;;;;;;88.63;53.83;;;17.70;74.80;;;;;;4938461;28;89572;-44
2023/07/03 01:18:59;;;;;;;87.85;53.50;;;17.70;74.50;;;;;;4942943;28;91590;-45
2023/07/03 01:21:46;;;;;;;87.28;53.28;;;17.70;74.10;;;;;;4942513;28;95375;-46
2023/07/03 01:24:17;;;;;;;87.20;53.35;;;17.70;73.90;;;;;;4939046;28;90889;-45
2023/07/03 01:26:44;;;;;;;88.93;54.33;;;17.70;74.90;;;;;;4926722;28;90355;-47
2023/07/03 01:29:12;;;;;;;87.07;53.50;;;17.70;74.30;;;;;;4945041;28;91559;-46
2023/07/03 01:31:38;;;;;;;88.45;53.72;;;17.70;74.70;;;;;;4931940;28;90568;-46
2023/07/03 01:34:08;;;;;;;85.93;53.08;;;17.70;74.50;;;;;;4937882;28;91033;-45
2023/07/03 01:36:35;;;;;;;85.90;53.47;;;17.70;74.70;;;;;;4916387;28;90868;-44
2023/07/03 01:39:02;;;;;;;89.00;54.10;;;17.80;74.70;;;;;;4948617;28;90287;-45
2023/07/03 01:41:29;;;;;;;85.38;53.25;;;17.70;73.70;;;;;;4944076;28;92760;-45
2023/07/03 01:43:55;;;;;;;86.28;53.90;;;17.70;73.90;;;;;;4938364;28;89703;-46
2023/07/03 01:46:22;;;;;;;86.63;53.63;;;17.70;75.30;;;;;;4940315;28;90549;-45
2023/07/03 01:48:48;;;;;;;85.45;53.67;;;17.80;74.50;;;;;;4943060;28;89286;-46
2023/07/03 01:51:24;;;;;;;87.70;53.75;;;17.80;74.90;;;;;;4938794;28;90792;-46
2023/07/03 01:54:14;;;;;;;85.40;53.50;;;17.70;74.20;;;;;;4940224;28;89816;-45
2023/07/03 01:56:44;;;;;;;85.95;53.67;;;17.70;74.20;;;;;;4940416;28;89619;-45
2023/07/03 01:59:12;;;;;;;85.25;53.38;;;17.80;74.20;;;;;;4943521;28;89945;-45
2023/07/03 02:02:02;;;;;;;85.05;53.55;;;17.80;74.00;;;;;;4939814;28;89817;-45
2023/07/03 02:04:33;;;;;;;86.13;53.55;;;17.80;74.00;;;;;;4947128;28;90435;-45
2023/07/03 02:07:00;;;;;;;;;;;17.80;74.70;;;;;;4941608;28;94985;-45
2023/07/03 02:09:26;;;;;;;85.15;53.75;;;17.70;73.90;;;;;;4941562;28;89407;-45
2023/07/03 02:11:53;;;;;;;86.25;53.90;;;17.80;74.30;;;;;;4940033;28;91655;-45
2023/07/03 02:14:18;;;;;;;86.50;53.65;;;17.80;73.80;;;;;;4940529;28;89757;-45
2023/07/03 02:16:47;;;;;;;86.78;53.83;;;17.80;73.70;;;;;;4938062;28;89466;-45
2023/07/03 02:19:15;;;;;;;87.90;53.92;;;17.80;75.50;;;;;;4937367;28;89875;-46
2023/07/03 02:21:43;;;;;;;86.80;53.95;;;17.80;74.00;;;;;;4938632;28;90108;-45
2023/07/03 02:24:10;;;;;;;85.10;53.55;;;17.80;74.30;;;;;;4943319;28;95466;-45
2023/07/03 02:26:36;;;;;;;85.95;53.72;;;17.80;74.00;;;;;;4941276;28;89540;-44
2023/07/03 02:29:02;;;;;;;88.03;53.30;;;17.80;74.90;;;;;;4942804;28;89156;-47
2023/07/03 02:31:28;;;;;;;88.22;53.53;;;17.80;74.20;;;;;;4940940;28;89952;-46
2023/07/03 02:33:53;;;;;;;85.82;53.45;;;17.80;74.00;;;;;;4944730;28;89531;-47
2023/07/03 02:36:19;;;;;;;84.68;53.28;;;17.80;73.90;;;;;;4934210;28;90884;-45
2023/07/03 02:38:44;;;;;;;89.10;53.83;;;17.70;75.00;;;;;;4939025;28;89738;-46
2023/07/03 02:41:10;;;;;;;87.55;54.08;;;17.80;74.10;;;;;;4942949;28;90189;-45
2023/07/03 02:43:36;;;;;;;85.80;53.67;;;17.80;75.00;;;;;;4940826;28;90222;-46
2023/07/03 02:46:03;;;;;;;85.55;53.88;;;17.80;74.20;;;;;;4939735;28;91027;-45
2023/07/03 02:48:29;;;;;;;85.80;54.05;;;17.80;75.70;;;;;;4942190;28;91871;-46
2023/07/03 02:50:55;;;;;;;88.53;53.60;;;17.80;74.00;;;;;;4939124;28;96675;-46
2023/07/03 02:53:20;;;;;;;84.78;53.63;;;17.80;73.70;;;;;;4942642;28;90921;-47
2023/07/03 02:55:50;;;;;;;87.35;53.58;;;17.80;74.00;;;;;;4944978;28;90162;-45
2023/07/03 02:58:17;;;;;;;85.65;53.90;;;17.80;74.10;;;;;;4936035;28;89994;-46
2023/07/03 03:00:43;;;;;;;84.22;53.55;;;17.80;74.40;;;;;;4936386;28;90856;-48
2023/07/03 03:03:08;;;;;;;85.53;53.78;;;17.80;74.80;;;;;;4937474;28;91313;-46
2023/07/03 03:05:34;;;;;;;85.47;53.80;;;17.80;73.90;;;;;;4943619;28;89456;-45
2023/07/03 03:08:00;;;;;;;86.30;53.88;;;17.80;74.60;;;;;;4942958;28;89378;-46
2023/07/03 03:10:25;;;;;;;86.25;53.97;;;17.80;74.20;;;;;;4932482;28;91212;-46
2023/07/03 03:12:51;;;;;;;89.32;54.35;;;17.80;74.20;;;;;;4934254;28;91790;-46
2023/07/03 03:15:18;;;;;;;85.18;53.70;;;17.80;74.30;;;;;;4931432;28;89673;-46
2023/07/03 03:17:44;;;;;;;84.03;53.58;;;17.70;75.80;;;;;;4932294;28;88751;-47
2023/07/03 03:20:11;;;;;;;86.90;53.65;;;17.80;76.00;;;;;;4928457;28;91372;-45
2023/07/03 03:22:36;;;;;;;86.72;54.03;;;17.80;74.70;;;;;;4932792;28;91524;-45
2023/07/03 03:25:02;;;;;;;87.88;54.08;;;17.80;74.00;;;;;;4930313;28;90870;-46
2023/07/03 03:27:28;;;;;;;89.22;54.17;;;17.80;74.00;;;;;;4928851;28;90786;-45
2023/07/03 03:29:53;;;;;;;86.72;53.65;;;17.80;74.60;;;;;;4930413;28;90001;-45
2023/07/03 03:32:19;;;;;;;84.70;53.55;;;17.80;75.10;;;;;;4930244;28;89723;-45
2023/07/03 03:34:45;;;;;;;85.40;53.45;;;17.80;74.40;;;;;;4934544;28;94574;-45
2023/07/03 03:37:10;;;;;;;86.53;53.33;;;17.80;75.10;;;;;;4928393;28;89975;-46
2023/07/03 03:39:36;;;;;;;86.78;53.45;;;17.80;74.00;;;;;;4939003;28;89732;-45
2023/07/03 03:42:02;;;;;;;87.50;53.90;;;17.80;74.60;;;;;;4928598;28;90389;-47
2023/07/03 03:44:27;;;;;;;85.90;53.97;;;17.80;73.90;;;;;;4928809;28;90191;-45
2023/07/03 03:46:53;;;;;;;87.20;54.35;;;17.70;74.20;;;;;;4931092;28;95162;-45
2023/07/03 03:49:19;;;;;;;84.80;53.83;;;17.70;74.30;;;;;;4937009;28;91118;-46
2023/07/03 03:51:44;;;;;;;84.80;53.65;;;17.70;74.60;;;;;;4928513;28;89998;-48
2023/07/03 03:54:10;;;;;;;84.72;53.55;;;17.70;74.60;;;;;;4935665;28;91373;-45
2023/07/03 03:56:36;;;;;;;84.75;53.97;;;17.70;74.60;;;;;;4939434;28;89890;-46
2023/07/03 03:59:02;;;;;;;85.38;53.53;;;17.80;73.90;;;;;;4930046;28;90362;-46
2023/07/03 04:01:28;;;;;;;85.32;53.75;;;17.80;74.50;;;;;;4931313;28;91341;-46
2023/07/03 04:03:53;;;;;;;87.50;54.30;;;17.80;73.90;;;;;;4932837;28;89793;-47
2023/07/03 04:06:19;;;;;;;85.82;53.85;;;17.80;74.70;;;;;;4931742;28;88770;-45
2023/07/03 04:08:45;;;;;;;87.15;54.33;;;17.80;74.70;;;;;;4937157;28;94843;-45
2023/07/03 04:11:11;;;;;;;84.53;53.97;;;17.70;74.00;;;;;;4935916;28;89992;-45
2023/07/03 04:13:37;;;;;;;87.38;53.78;;;17.70;73.90;;;;;;4946864;28;90802;-47
2023/07/03 04:16:03;;;;;;;87.05;54.10;;;17.80;75.00;;;;;;4938094;28;93443;-45
2023/07/03 04:18:30;;;;;;;87.18;54.33;;;17.70;74.00;;;;;;4937974;28;90096;-45
2023/07/03 04:20:57;;;;;;;84.90;53.78;;;17.80;75.10;;;;;;4936460;28;92860;-45
2023/07/03 04:23:24;;;;;;;86.25;54.22;;;17.80;74.50;;;;;;4938452;28;95093;-46
2023/07/03 04:25:50;;;;;;;84.57;53.72;;;17.80;74.00;;;;;;4938321;28;91147;-46
2023/07/03 04:28:18;;;;;;;86.15;53.95;;;17.80;74.90;;;;;;4939723;28;90109;-47
2023/07/03 04:30:45;;;;;;;85.38;53.95;;;17.80;73.80;;;;;;4944414;28;90555;-45
2023/07/03 04:33:11;;;;;;;86.63;54.05;;;17.80;74.60;;;;;;4943588;28;89531;-46
2023/07/03 04:35:37;;;;;;;86.13;53.75;;;17.80;75.70;;;;;;4942563;28;89900;-46
2023/07/03 04:38:03;;;;;;;84.32;53.90;;;17.80;76.00;;;;;;4932929;28;91776;-45
2023/07/03 04:40:29;;;;;;;88.38;54.28;;;17.80;74.60;;;;;;4935942;28;90911;-45
2023/07/03 04:42:55;;;;;;;87.20;54.17;;;17.80;75.20;;;;;;4941476;28;89468;-45
2023/07/03 04:45:24;;;;;;;85.88;53.80;;;17.80;73.90;;;;;;4945714;28;90308;-45
2023/07/03 04:47:51;;;;;;;87.40;53.85;;;17.80;74.30;;;;;;4939854;28;89849;-45
2023/07/03 04:50:17;;;;;;;87.00;53.97;;;17.80;75.10;;;;;;4941649;28;89883;-46
2023/07/03 04:52:46;;;;;;;84.85;53.42;;;17.80;74.80;;;;;;4945425;28;89462;-45
2023/07/03 04:55:12;;;;;;;85.18;53.88;;;17.90;75.20;;;;;;4937726;28;88971;-46
2023/07/03 04:57:40;;;;;;;86.95;54.10;;;17.80;74.70;;;;;;4939458;28;91100;-49
2023/07/03 05:00:14;;;;;;;86.90;53.78;;;17.90;74.80;;;;;;4943862;28;90277;-49
2023/07/03 05:02:51;;;;;;;85.40;53.72;;;17.90;74.20;;;;;;4937339;28;90849;-49
2023/07/03 05:05:18;;;;;;;84.50;53.95;;;17.90;74.10;;;;;;4942258;28;90012;-46
2023/07/03 05:07:44;;;;;;;85.05;54.20;;;17.90;74.40;;;;;;4931698;28;93797;-45
2023/07/03 05:10:13;;;;;;;85.22;54.00;;;18.00;74.20;;;;;;4939882;28;89666;-45
2023/07/03 05:12:39;;;;;;;87.40;54.25;;;18.00;74.50;;;;;;4939370;28;92625;-45
2023/07/03 05:15:08;;;;;;;86.00;54.13;;;18.00;73.40;;;;;;4938985;28;89763;-47
2023/07/03 05:17:35;;;;;;;85.38;54.42;;;18.00;73.70;;;;;;4927074;28;90253;-46
2023/07/03 05:20:01;;;;;;;85.05;53.90;;;18.00;73.50;;;;;;4933755;28;89351;-46
2023/07/03 05:22:27;;;;;;;86.22;53.78;;;18.00;73.50;;;;;;4932712;28;89476;-45
2023/07/03 05:24:52;;;;;;;86.55;53.75;;;18.10;74.60;;;;;;4932035;28;91131;-45
2023/07/03 05:27:18;;;;;;;86.93;54.42;;;18.10;74.00;;;;;;4943086;28;90549;-46
2023/07/03 05:29:44;;;;;;;88.20;54.88;;;18.10;73.30;;;;;;4940114;28;90256;-47
2023/07/03 05:32:10;;;;;;;85.85;54.50;;;18.10;73.60;;;;;;4939702;28;89840;-45
2023/07/03 05:34:38;;;;;;;87.47;53.55;;;18.10;73.10;;;;;;4935271;28;89656;-46
2023/07/03 05:37:05;;;;;;;85.97;54.33;;;18.20;73.20;;;;;;4930605;28;91970;-46
2023/07/03 05:39:30;;;;;;;85.90;54.22;;;18.20;72.90;;;;;;4938678;28;91296;-45
2023/07/03 05:41:56;;;;;;;85.65;53.72;;;18.20;74.70;;;;;;4937634;28;90030;-45
2023/07/03 05:44:21;;;;;;;84.70;54.08;;;18.30;73.30;;;;;;4937899;28;90387;-45
2023/07/03 05:46:47;;;;;;;88.88;54.35;;;18.30;74.00;;;;;;4940306;28;89543;-45
2023/07/03 05:49:12;;;;;;;86.90;54.38;;;18.30;73.30;;;;;;4936239;28;89586;-45
2023/07/03 05:51:38;;;;;;;89.22;54.53;;;18.40;73.30;;;;;;4940401;28;90436;-47
2023/07/03 05:54:04;;;;;;;87.28;54.20;;;18.40;73.20;;;;;;4943345;28;89552;-44
2023/07/03 05:56:30;;;;;;;85.72;54.05;;;18.40;73.60;;;;;;4938391;28;90206;-46
2023/07/03 05:58:55;;;;;;;89.80;54.67;;;18.50;73.50;;;;;;4936627;28;89504;-46
2023/07/03 06:01:21;;;;;;;86.50;53.80;;;18.50;73.20;;;;;;4945398;28;89834;-45
2023/07/03 06:03:47;;;;;;;88.75;54.58;;;18.50;73.50;;;;;;4938027;28;91443;-46
2023/07/03 06:06:13;;;;;;;85.88;54.00;;;18.50;72.90;;;;;;4948109;28;89665;-46
2023/07/03 06:08:40;;;;;;;86.90;54.25;;;18.50;72.60;;;;;;4936047;28;88909;-44
2023/07/03 06:11:05;;;;;;;86.50;54.20;;;18.60;72.60;;;;;;4933151;28;89524;-45
2023/07/03 06:13:31;;;;;;;86.82;54.40;;;18.60;72.70;;;;;;4941258;28;93142;-45
2023/07/03 06:15:57;;;;;;;87.20;54.42;;;18.70;72.50;;;;;;4938172;28;90576;-46
2023/07/03 06:18:22;;;;;;;85.00;54.35;;;18.70;72.30;;;;;;4939613;28;90240;-44
2023/07/03 06:20:48;;;;;;;86.57;54.40;;;18.80;73.70;;;;;;4935230;28;89725;-47
2023/07/03 06:23:15;;;;;;;87.70;54.65;;;18.80;72.20;;;;;;4934299;28;89604;-45
2023/07/03 06:25:40;;;;;;;86.43;54.63;;;18.90;72.40;;;;;;4936463;28;91530;-44
2023/07/03 06:28:06;;;;;;;87.05;54.47;;;18.90;72.20;;;;;;4941043;28;91279;-45
2023/07/03 06:30:32;;;;;;;91.47;54.80;;;19.00;72.10;;;;;;4932664;28;89794;-45
2023/07/03 06:32:58;;;;;;;86.60;54.50;;;19.00;72.10;;;;;;4931696;28;91975;-45
2023/07/03 06:35:23;;;;;;;88.13;54.95;;;19.00;71.40;;;;;;4935316;28;90249;-46
2023/07/03 06:37:52;;;;;;;86.72;54.83;;;19.00;71.20;;;;;;4933681;28;91322;-46
2023/07/03 06:40:19;;;;;;;89.13;54.65;;;19.10;70.70;;;;;;4939784;28;90879;-44
2023/07/03 06:42:44;;;;;;;88.82;54.85;;;19.10;70.80;;;;;;4943293;28;90322;-46
2023/07/03 06:45:17;;;;;;;87.65;54.80;;;19.10;70.90;;;;;;4943466;28;89908;-46
2023/07/03 06:47:42;;;;;;;89.32;55.63;;;19.20;70.20;;;;;;4941965;28;89528;-45
2023/07/03 06:50:08;;;;;;;89.35;54.67;;;19.20;69.90;;;;;;4941267;28;90151;-47
2023/07/03 06:52:35;;;;;;;89.93;55.05;;;19.30;69.90;;;;;;4941155;28;92392;-45
2023/07/03 06:55:01;;;;;;;90.72;55.03;;;19.40;70.10;;;;;;4946082;28;90124;-45
2023/07/03 06:57:27;;;;;;;92.55;55.60;;;19.50;69.50;;;;;;4946347;28;88925;-45
2023/07/03 06:59:52;;;;;;;93.07;55.08;;;19.50;69.60;;;;;;4941242;28;89914;-45
2023/07/03 07:02:18;;;;;;;91.75;55.67;;;19.60;69.10;;;;;;4934799;28;89799;-46
2023/07/03 07:04:45;;;;;;;92.43;55.50;;;19.60;69.00;;;;;;4938673;28;90896;-45
2023/07/03 07:07:10;;;;;;;90.95;55.45;;;19.60;68.90;;;;;;4934224;28;90352;-46
2023/07/03 07:09:37;;;;;;;89.07;55.08;;;19.60;69.20;;;;;;4936103;28;89701;-44
2023/07/03 07:12:03;;;;;;;91.88;55.42;;;19.70;68.90;;;;;;4937230;28;91489;-46
2023/07/03 07:14:29;;;;;;;90.88;55.70;;;19.70;69.10;;;;;;4939145;28;89636;-45
2023/07/03 07:16:54;;;;;;;94.07;55.65;;;19.70;69.20;;;;;;4938985;28;91818;-45
2023/07/03 07:19:20;;;;;;;89.82;55.28;;;19.70;69.00;;;;;;4941981;28;89597;-45
2023/07/03 07:21:45;;;;;;;89.95;55.00;;;19.70;69.20;;;;;;4942610;28;89092;-45
2023/07/03 07:24:18;;;;;;;91.45;55.85;;;19.70;69.40;;;;;;4939043;28;89582;-46
2023/07/03 07:26:44;;;;;;;88.25;54.88;;;19.70;69.30;;;;;;4937198;28;89519;-45
2023/07/03 07:29:10;;;;;;;92.63;55.35;;;19.70;69.50;;;;;;4936819;28;91669;-48
2023/07/03 07:31:37;;;;;;;88.80;55.22;;;19.70;69.30;;;;;;4934706;28;89628;-46
2023/07/03 07:34:04;;;;;;;91.05;55.45;;;19.70;69.30;;;;;;4936564;28;93661;-46
2023/07/03 07:36:30;;;;;;;89.70;55.10;;;19.70;69.50;;;;;;4934995;28;90270;-44
2023/07/03 07:38:56;;;;;;;88.63;54.85;;;19.70;70.10;;;;;;4942126;28;89513;-45
2023/07/03 07:41:24;;;;;;;90.00;55.35;;;19.70;69.40;;;;;;4937797;28;92136;-45
2023/07/03 07:43:51;;;;;;;90.80;55.15;;;19.70;69.20;;;;;;4936294;28;90048;-45
2023/07/03 07:46:17;;;;;;;91.85;55.30;;;19.80;69.10;;;;;;4937881;28;90049;-44
2023/07/03 07:48:42;;;;;;;89.82;54.78;;;19.80;68.90;;;;;;4928962;28;90029;-45
2023/07/03 07:51:10;;;;;;;92.78;54.88;;;19.90;68.90;;;;;;4932906;28;93008;-45
2023/07/03 07:53:36;;;;;;;91.70;55.45;;;19.90;68.40;;;;;;4934821;28;90546;-45
2023/07/03 07:56:03;;;;;;;89.72;55.20;;;19.90;68.50;;;;;;4940052;28;90101;-44
2023/07/03 07:58:29;;;;;;;93.13;55.55;;;20.00;69.60;;;;;;4938280;28;89377;-45
2023/07/03 08:00:57;;;;;;;94.82;55.70;;;20.10;69.70;;;;;;4942355;28;94461;-45
2023/07/03 08:03:23;;;;;;;97.18;55.55;;;20.10;68.00;;;;;;4934434;28;90206;-46
2023/07/03 08:05:55;;;;;;;92.95;55.30;;;20.20;65.70;;;;;;4935102;28;89628;-46
2023/07/03 08:08:20;;;;;;;94.68;55.17;;;20.20;63.10;;;;;;4938919;28;90078;-46
2023/07/03 08:10:57;;;;;;;92.88;54.75;;;20.20;64.60;;;;;;4935140;28;90389;-44
2023/07/03 08:13:23;;;;;;;93.38;55.15;;;20.30;64.10;;;;;;4939139;28;89802;-46
2023/07/03 08:15:49;;;;;;;92.57;55.13;;;20.30;61.50;;;;;;4939701;28;89530;-44
2023/07/03 08:18:16;;;;;;;95.45;55.25;;;20.50;64.30;;;;;;4937514;28;94733;-47
2023/07/03 08:20:43;;;;;;;94.30;54.95;;;20.50;60.30;;;;;;4942512;28;90199;-46
2023/07/03 08:23:08;;;;;;;95.38;54.97;;;20.40;61.20;;;;;;4937779;28;89677;-45
2023/07/03 08:25:34;;;;;;;92.95;54.85;;;20.40;62.40;;;;;;4941239;28;94572;-46
2023/07/03 08:28:00;;;;;;;93.28;55.22;;;20.40;60.60;;;;;;4935140;28;89306;-47
2023/07/03 08:30:25;;;;;;;91.97;54.38;;;20.40;62.90;;;;;;4939582;28;90041;-47
2023/07/03 08:32:51;;;;;;;95.57;55.03;;;20.30;63.10;;;;;;4935773;28;90511;-46
2023/07/03 08:35:17;;;;;;;95.80;55.30;;;20.40;60.90;;;;;;4941321;28;89055;-47
2023/07/03 08:37:43;;;;;;;94.45;55.05;;;20.40;59.70;;;;;;4933911;28;89973;-46
2023/07/03 08:40:10;;;;;;;93.35;55.25;;;20.40;60.90;;;;;;4939445;28;89412;-45
2023/07/03 08:42:43;;;;;;;93.20;54.75;;;20.40;63.10;;;;;;4940176;28;90834;-47
2023/07/03 08:45:13;;;;;;;95.05;54.92;;;20.40;61.50;;;;;;4931563;28;92403;-47
2023/07/03 08:47:40;;;;;;;95.70;54.83;;;20.50;62.80;;;;;;4938832;28;89617;-47
2023/07/03 08:50:07;;;;;;;91.03;54.88;;;20.50;59.40;;;;;;4937395;28;89507;-47
2023/07/03 08:52:44;;;;;;;93.55;54.75;;;20.50;60.40;;;;;;4938432;28;90254;-47
2023/07/03 08:55:14;;;;;;;90.28;54.85;;;20.50;60.70;;;;;;4938445;28;89945;-45
2023/07/03 08:57:40;;;;;;;89.97;54.35;;;20.60;60.30;;;;;;4924905;28;90498;-45
2023/07/03 09:00:10;;;;;;;93.63;54.78;;;20.60;59.10;;;;;;4932736;28;88921;-46
2023/07/03 09:02:49;;;;;;;89.95;54.55;;;20.60;56.30;;;;;;4935971;28;92549;-47
2023/07/03 09:05:45;;;;;;;93.85;54.70;;;20.60;60.20;;;;;;4936655;28;90182;-45
2023/07/03 09:08:18;;;;;;;94.63;54.58;;;20.60;59.50;;;;;;4940869;28;90952;-46
2023/07/03 09:10:49;;;;;;;95.45;54.88;;;20.70;58.60;;;;;;4920908;28;89630;-46
2023/07/03 09:13:42;;;;;;;92.55;54.58;;;20.70;58.90;;;;;;4932901;28;90360;-47
2023/07/03 09:16:11;;;;;;;94.18;55.22;;;20.70;58.70;;;;;;4937068;28;92964;-42
2023/07/03 09:18:44;;;;;;;93.25;54.88;;;20.70;55.20;;;;;;4942257;28;89521;-41
2023/07/03 09:21:09;;;;;;;93.25;54.88;;;20.70;55.50;;;;;;4932748;28;90479;-41
2023/07/03 09:23:46;;;;;;;95.55;55.08;;;20.80;55.40;;;;;;4934870;28;90822;-44
2023/07/03 09:26:39;;;;;;;94.28;54.80;;;20.90;54.90;;;;;;4947405;28;88957;-43
2023/07/03 09:29:05;;;;;;;94.82;55.08;;;20.80;53.90;;;;;;4923265;28;90886;-41
2023/07/03 09:31:31;;;;;;;93.43;54.83;;;20.80;54.40;;;;;;4943919;28;89543;-41
2023/07/03 09:33:57;;;;;;;92.38;55.10;;;20.80;54.00;;;;;;4938851;28;91021;-40
2023/07/03 09:36:28;;;;;;;92.72;54.72;;;20.80;54.00;;;;;;4939621;28;89943;-43
2023/07/03 09:38:54;;;;;;;96.85;54.75;;;20.70;54.40;;;;;;4938387;28;89840;-45
2023/07/03 09:41:29;;;;;;;94.82;55.00;;;20.70;54.40;;;;;;4948376;28;93403;-43
2023/07/03 09:43:55;;;;;;;94.72;54.50;;;20.70;53.90;;;;;;4937140;28;90030;-43
2023/07/03 09:46:22;;;;;;;91.07;54.15;;;20.70;54.30;;;;;;4937081;28;91640;-40
2023/07/03 09:48:48;;;;;;;91.47;54.30;;;20.60;52.90;;;;;;4938955;28;89900;-40
2023/07/03 09:51:19;;;;;;;91.07;54.55;;;20.70;53.60;;;;;;4936610;28;89609;-45
2023/07/03 09:53:45;;;;;;;89.13;54.35;;;20.70;53.20;;;;;;4941825;28;90391;-41
2023/07/03 09:56:15;;;;;;;86.90;54.08;;;20.70;53.10;;;;;;4947229;28;90383;-43
2023/07/03 09:58:50;;;;;;;92.88;54.15;;;20.90;53.60;;;;;;4933641;28;90487;-43
2023/07/03 10:01:24;;;;;;;94.95;55.08;;;21.00;53.30;;;;;;4947288;28;89736;-42
2023/07/03 10:04:02;;;;;;;93.10;54.72;;;21.10;53.80;;;;;;4928965;28;90320;-43
2023/07/03 10:06:28;;;;;;;92.07;54.40;;;21.10;53.10;;;;;;4935318;28;89732;-45
2023/07/03 10:08:58;;;;;;;89.53;54.03;;;21.00;53.10;;;;;;4929827;28;89848;-44
2023/07/03 10:11:33;;;;;;;89.55;54.58;;;20.90;49.70;;;;;;4918025;28;89838;-44
2023/07/03 10:14:25;;;;;;;90.72;54.28;;;21.00;51.70;;;;;;4920584;28;90752;-44
2023/07/03 10:16:52;;;;;;;90.78;54.22;;;21.10;50.20;;;;;;4924918;28;90940;-45
2023/07/03 10:19:20;;;;;;;90.72;54.58;;;21.10;49.90;;;;;;4926159;28;89717;-42
2023/07/03 10:21:46;;;;;;;91.85;54.70;;;21.10;50.60;;;;;;4932400;28;90488;-42
2023/07/03 10:24:13;;;;;;;93.32;54.63;;;21.10;51.00;;;;;;4927524;28;91318;-42
2023/07/03 10:26:47;;;;;;;94.35;55.13;;;21.20;52.30;;;;;;4929176;28;91072;-45
2023/07/03 10:29:39;;;;;;;95.40;54.50;;;21.30;51.90;;;;;;4923870;28;90145;-45
2023/07/03 10:32:13;;;;;;;93.63;54.63;;;21.30;52.00;;;;;;4933742;28;96613;-45
2023/07/03 10:35:01;;;;;;;92.40;54.90;;;21.20;52.00;;;;;;4933429;28;91060;-44
2023/07/03 10:37:29;;;;;;;91.07;55.17;;;21.30;53.60;;;;;;4923777;28;90227;-44
2023/07/03 10:40:12;;;;;;;95.03;55.17;;;21.20;53.20;;;;;;4935994;28;89794;-42
2023/07/03 10:42:57;;;;;;;93.68;54.67;;;21.20;52.80;;;;;;4936969;28;90942;-42
2023/07/03 10:45:25;;;;;;;88.88;54.40;;;21.10;52.90;;;;;;4933519;28;91036;-42
2023/07/03 10:48:00;;;;;;;90.40;54.55;;;20.90;54.00;;;;;;4916591;28;90119;-44
2023/07/03 10:50:37;;;;;;;92.85;54.85;;;21.10;53.00;;;;;;4928298;28;91139;-41
2023/07/03 10:53:27;;;;;;;95.47;54.95;;;21.20;52.80;;;;;;4933344;28;89447;-42
2023/07/03 10:56:24;;;;;;;91.75;55.13;;;21.30;52.70;;;;;;4930818;28;89487;-41
2023/07/03 10:59:15;;;;;;;89.25;54.40;;;21.40;52.10;;;;;;4927259;28;89806;-39
2023/07/03 11:02:05;;;;;;;90.70;55.10;;;21.30;52.80;;;;;;4933694;28;89946;-41
2023/07/03 11:04:39;;;;;;;94.13;55.03;;;21.40;53.60;;;;;;4925859;28;91552;-45
2023/07/03 11:07:43;;;;;;;93.65;55.13;;;21.60;53.30;;;;;;4929547;28;90176;-41
2023/07/03 11:10:18;;;;;;;95.15;54.90;;;21.60;52.60;;;;;;4876241;28;89719;-41
2023/07/03 11:12:47;;;;;;;93.70;55.40;;;21.60;52.50;;;;;;4932853;28;90330;-40
2023/07/03 11:15:38;;;;;;;94.97;55.05;;;21.60;51.10;;;;;;4925349;28;91117;-41
2023/07/03 11:18:21;;;;;;;91.15;54.58;;;21.50;50.60;;;;;;4928112;28;91920;-42
2023/07/03 11:20:55;;;;;;;91.55;54.47;;;21.50;51.20;;;;;;4927858;28;89901;-44
2023/07/03 11:23:34;;;;;;;92.07;54.55;;;21.50;51.10;;;;;;4932836;28;90453;-42
2023/07/03 11:26:11;;;;;;;90.18;54.35;;;21.40;51.00;;;;;;4944535;28;90138;-43
2023/07/03 11:28:43;;;;;;;90.20;54.30;;;21.30;51.90;;;;;;4937662;28;89512;-41
2023/07/03 11:31:10;;;;;;;91.88;54.85;;;21.40;51.90;;;;;;4928167;28;90664;-41
2023/07/03 11:33:36;;;;;;;93.07;54.92;;;21.50;50.60;;;;;;4936936;28;89511;-41
2023/07/03 11:36:02;;;;;;;97.72;55.45;;;21.50;50.60;;;;;;4937331;28;89090;-42
2023/07/03 11:38:28;;;;;;;92.55;55.00;;;21.50;50.30;;;;;;4932686;28;91493;-45
2023/07/03 11:40:54;;;;;;;95.80;55.28;;;21.60;50.10;;;;;;4937592;28;90046;-41
2023/07/03 11:43:21;;;;;;;93.25;55.50;;;21.60;50.30;;;;;;4938293;28;96295;-43
2023/07/03 11:46:00;;;;;;;91.47;55.30;;;21.70;49.10;;;;;;4925304;28;90038;-44
2023/07/03 11:48:35;;;;;;;92.68;55.22;;;21.80;49.80;;;;;;4936665;28;90811;-42
2023/07/03 11:51:10;;;;;;;93.35;55.28;;;22.00;49.30;;;;;;4937146;28;90761;-43
2023/07/03 11:53:52;;;;;;;96.68;55.63;;;22.00;50.00;;;;;;4940446;28;91378;-49
2023/07/03 11:56:30;;;;;;;94.90;55.92;;;22.10;49.10;;;;;;4930607;28;90393;-41
2023/07/03 11:59:28;;;;;;;95.78;56.08;;;22.20;50.40;;;;;;4937814;28;90216;-44
2023/07/03 12:02:13;;;;;;;95.93;55.88;;;22.30;49.60;;;;;;4921389;28;88869;-43
2023/07/03 12:04:45;;;;;;;96.40;56.00;;;22.30;50.70;;;;;;4935317;28;89570;-43
2023/07/03 12:07:19;;;;;;;99.65;56.03;;;22.30;50.20;;;;;;4934428;28;90172;-50
2023/07/03 12:09:46;;;;;;;95.18;55.28;;;22.30;49.60;;;;;;4940095;28;91074;-44
2023/07/03 12:12:28;;;;;;;96.07;55.78;;;22.20;50.50;;;;;;4936410;28;89863;-43
2023/07/03 12:14:57;;;;;;;96.72;56.15;;;22.20;51.30;;;;;;4940588;28;90082;-47
2023/07/03 12:17:32;;;;;;;95.38;55.67;;;22.20;50.80;;;;;;4938251;28;89515;-46
2023/07/03 12:20:10;;;;;;;92.28;56.17;;;22.30;51.50;;;;;;4927554;28;91645;-50
2023/07/03 12:22:45;;;;;;;93.78;55.92;;;22.10;50.80;;;;;;4937352;28;89679;-56
2023/07/03 12:25:18;;;;;;;92.28;55.70;;;22.10;51.20;;;;;;4947619;28;89844;-42
2023/07/03 12:27:46;;;;;;;94.45;55.85;;;22.10;49.70;;;;;;4935260;28;95277;-43
2023/07/03 12:30:27;;;;;;;96.05;55.40;;;22.10;50.60;;;;;;4932146;28;91153;-43
2023/07/03 12:32:54;;;;;;;99.75;56.22;;;22.20;50.80;;;;;;4932401;28;91298;-45
2023/07/03 12:35:24;;;;;;;91.97;55.25;;;22.20;50.70;;;;;;4921672;28;94297;-48
2023/07/03 12:37:55;;;;;;;91.72;55.08;;;22.30;50.50;;;;;;4924808;28;92163;-43